Latest Weather Observations for Edenhope

IDV60801

Issued at 1:31 pm EST Thursday 2 July 2015 (issued every 30 minutes, with the page automatically refreshed every 10 minutes)

About weather observations | Map of weather stations | Latest weather observations for VIC | Other Formats
Station Details ID: 079099 Name: EDENHOPE AIRPORT Lat: -37.02 Lon: 141.27 Height: 155.0 m
Data from the previous 72 hours. | See also: Recent months at Edenhope
Date/Time
EST
Temp
°C
App
Temp
°C
Dew
Point
Rel
Hum
%
Delta-T
°C
Wind Press
QNH
hPa
Press
MSL
hPa
Rain
since 9 am
mm
Dir
 
Spd
km/h
Gust
km/h
Spd
kts
Gust
kts
02/01:30pm 9.9 5.2 3.2 63 2.9 S 17 32 9 17 - - 0.0
02/01:00pm 11.6 7.5 4.6 62 3.2 SSW 15 32 8 17 - - 0.0
02/12:30pm 10.1 5.3 4.5 68 2.5 SSW 19 24 10 13 - - 0.0
02/12:00pm 11.4 6.6 4.8 64 3.0 SSW 19 28 10 15 - - 0.0
02/11:30am 10.6 5.3 4.9 68 2.6 SSW 22 35 12 19 - - 0.0
02/11:00am 10.7 5.9 4.8 67 2.7 SSW 19 30 10 16 - - 0.0
02/10:30am 10.3 5.3 4.7 68 2.5 SSW 20 32 11 17 - - 0.0
02/10:00am 9.8 6.3 5.4 74 2.0 SW 13 20 7 11 - - 0.0
02/09:30am 9.3 5.8 5.5 77 1.7 SW 13 20 7 11 - - 0.0
02/09:00am 8.4 5.6 5.3 81 1.4 WSW 9 13 5 7 - - 1.4
02/08:30am 8.1 4.6 5.4 83 1.2 SW 13 24 7 13 - - 1.4
02/08:00am 7.5 4.7 5.1 85 1.1 WSW 9 13 5 7 - - 1.4
02/07:30am 7.7 4.9 5.2 84 1.1 WSW 9 13 5 7 - - 1.4
02/07:00am 8.3 5.2 5.6 83 1.2 WSW 11 15 6 8 - - 1.4
02/06:30am 8.3 5.3 5.8 84 1.1 WSW 11 15 6 8 - - 1.4
02/06:00am 9.1 5.9 6.7 85 1.1 SW 13 20 7 11 - - 1.4
02/05:30am 9.3 6.8 8.1 92 0.6 SW 11 17 6 9 - - 1.4
02/05:00am 9.2 6.7 8.3 94 0.4 SW 11 17 6 9 - - 1.4
02/04:30am 10.0 7.4 9.4 96 0.3 WSW 13 19 7 10 - - 1.4
02/04:00am 9.9 7.3 9.3 96 0.3 W 13 17 7 9 - - 1.4
02/03:30am 10.2 8.1 9.7 97 0.3 W 11 15 6 8 - - 1.4
02/03:00am 10.2 8.1 9.6 96 0.3 W 11 15 6 8 - - 1.4
02/02:30am 10.2 6.9 9.4 95 0.4 W 17 22 9 12 - - 1.2
02/02:00am 9.8 6.3 8.7 93 0.5 WNW 17 26 9 14 - - 0.6
02/01:30am 9.5 5.5 8.4 93 0.5 NW 19 32 10 17 - - 0.6
02/01:00am 9.7 5.6 8.0 89 0.8 NW 19 24 10 13 - - 0.4
02/12:30am 9.7 6.3 7.8 88 0.9 NW 15 24 8 13 - - 0.4
02/12:00am 9.7 6.3 7.8 88 0.9 NW 15 20 8 11 - - 0.4
 
Date/Time
EST
Temp
°C
App
Temp
°C
Dew
Point
Rel
Hum
%
Delta-T
°C
Wind Press
QNH
hPa
Press
MSL
hPa
Rain
since 9 am
mm
Dir
 
Spd
km/h
Gust
km/h
Spd
kts
Gust
kts
01/11:30pm 9.8 6.5 7.9 88 0.9 NW 15 22 8 12 - - 0.4
01/11:00pm 9.9 6.2 8.0 88 0.9 NW 17 32 9 17 - - 0.4
01/10:30pm 10.1 6.3 7.7 85 1.2 NW 17 24 9 13 - - 0.4
01/10:00pm 10.1 6.0 7.7 85 1.2 WNW 19 30 10 16 - - 0.4
01/09:30pm 9.8 6.4 7.7 87 1.0 WNW 15 24 8 13 - - 0.4
01/09:00pm 9.8 6.7 7.2 84 1.2 WNW 13 20 7 11 - - 0.4
01/08:30pm 10.0 6.5 7.1 82 1.4 WNW 15 20 8 11 - - 0.4
01/08:00pm 9.7 6.5 7.0 83 1.3 NW 13 19 7 10 - - 0.4
01/07:30pm 9.6 6.4 6.9 83 1.3 NW 13 19 7 10 - - 0.4
01/07:00pm 9.8 6.3 7.1 83 1.3 WNW 15 22 8 12 - - 0.4
01/06:30pm 10.3 7.3 7.9 85 1.2 NW 13 19 7 10 - - 0.4
01/06:00pm 10.2 7.3 8.3 88 0.9 NW 13 20 7 11 - - 0.4
01/05:30pm 9.9 6.8 8.7 92 0.6 NW 15 22 8 12 - - 0.4
01/05:00pm 9.9 6.4 8.8 93 0.5 WNW 17 24 9 13 - - 0.4
01/04:30pm 11.4 7.3 8.8 84 1.3 WNW 20 28 11 15 - - 0.2
01/04:00pm 11.3 8.0 9.4 88 1.0 NW 17 24 9 13 - - 0.2
01/03:30pm 10.9 7.9 9.3 90 0.8 WNW 15 24 8 13 - - 0.2
01/03:00pm 10.8 7.5 9.6 92 0.6 W 17 20 9 11 - - 0.2
01/02:30pm 11.9 8.0 8.6 80 1.6 WNW 19 26 10 14 - - 0.0
01/02:00pm 12.3 8.8 8.6 78 1.9 WNW 17 26 9 14 - - 0.0
01/01:30pm 12.4 7.9 8.5 77 2.0 NW 22 32 12 17 - - 0.0
01/01:00pm 12.3 8.1 8.4 77 1.9 WNW 20 30 11 16 - - 0.0
01/12:30pm 12.3 8.3 8.4 77 1.9 NW 19 26 10 14 - - 0.0
01/12:00pm 11.5 8.4 8.7 83 1.4 NW 15 24 8 13 - - 0.0
01/11:30am 10.7 7.6 9.0 89 0.8 NNW 15 20 8 11 - - 0.0
01/11:00am 9.5 6.5 9.4 99 0.0 NW 15 20 8 11 - - 0.0
01/10:30am 8.5 6.8 8.4 99 0.0 NNW 7 11 4 6 - - 0.0
01/10:00am 7.5 5.2 7.4 99 0.0 NNW 9 15 5 8 - - 0.0
01/09:30am 7.2 4.8 7.1 99 0.0 NNW 9 13 5 7 - - 0.0
01/09:00am 6.5 4.0 6.4 99 0.0 N 9 13 5 7 - - 0.2
01/08:30am 6.3 4.1 6.2 99 0.0 N 7 11 4 6 - - 0.2
01/08:00am 5.8 4.4 5.7 99 0.0 N 2 6 1 3 - - 0.2
01/07:30am 5.7 3.6 5.6 99 0.0 N 6 9 3 5 - - 0.2
01/07:00am 5.1 2.3 5.0 99 0.0 N 9 11 5 6 - - 0.2
01/06:30am 4.5 1.9 4.4 99 0.0 N 7 11 4 6 - - 0.2
01/06:00am 4.3 2.3 4.2 99 0.0 NNE 4 6 2 3 - - 0.2
01/05:30am 4.2 1.8 4.1 99 0.0 N 6 7 3 4 - - 0.2
01/05:00am 3.7 0.9 3.4 98 0.1 N 7 7 4 4 - - 0.2
01/04:30am 3.6 1.0 3.3 98 0.1 N 6 6 3 3 - - 0.2
01/04:00am 3.3 1.8 3.0 98 0.1 CALM 0 0 0 0 - - 0.2
01/03:30am 3.4 1.9 3.1 98 0.1 CALM 0 2 0 1 - - 0.2
01/03:00am 4.6 2.6 4.3 98 0.1 NNE 4 4 2 2 - - 0.2
01/02:30am 5.5 4.0 5.2 98 0.1 NNW 2 4 1 2 - - 0.2
01/02:00am 5.7 3.9 5.3 97 0.2 NNW 4 6 2 3 - - 0.2
01/01:30am 5.3 3.4 4.7 96 0.3 NNW 4 6 2 3 - - 0.2
01/01:00am 6.0 3.8 5.4 96 0.3 NNE 6 7 3 4 - - 0.2
01/12:30am 6.3 4.6 5.7 96 0.3 N 4 6 2 3 - - 0.2
01/12:00am 6.5 4.8 5.8 95 0.3 N 4 4 2 2 - - 0.2
 
Date/Time
EST
Temp
°C
App
Temp
°C
Dew
Point
Rel
Hum
%
Delta-T
°C
Wind Press
QNH
hPa
Press
MSL
hPa
Rain
since 9 am
mm
Dir
 
Spd
km/h
Gust
km/h
Spd
kts
Gust
kts
30/11:30pm 7.1 5.5 6.2 94 0.4 N 4 4 2 2 - - 0.2
30/11:00pm 7.2 5.2 6.3 94 0.4 N 6 6 3 3 - - 0.2
30/10:30pm 7.8 6.3 6.9 94 0.4 N 4 4 2 2 - - 0.0
30/10:00pm 7.8 6.7 6.7 93 0.5 N 2 2 1 1 - - 0.0
30/09:30pm 7.4 5.8 6.5 94 0.4 NNW 4 6 2 3 - - 0.0
30/09:00pm 6.7 5.7 5.8 94 0.4 CALM 0 0 0 0 - - 0.0
30/08:30pm 6.3 5.3 5.4 94 0.4 CALM 0 0 0 0 - - 0.0
30/08:00pm 6.0 4.9 5.0 93 0.4 CALM 0 0 0 0 - - 0.0
30/07:30pm 6.1 5.0 4.9 92 0.5 CALM 0 0 0 0 - - 0.0
30/07:00pm 6.9 5.9 5.5 91 0.6 CALM 0 0 0 0 - - 0.0
30/06:30pm 7.9 7.0 6.0 88 0.9 CALM 0 0 0 0 - - 0.0
30/06:00pm 8.9 8.0 6.0 82 1.3 CALM 0 0 0 0 - - 0.0
30/05:30pm 10.1 9.3 6.4 78 1.7 CALM 0 0 0 0 - - 0.0
30/05:00pm 11.2 9.9 6.1 71 2.4 NNW 2 4 1 2 - - 0.0
30/04:30pm 10.9 9.0 6.5 74 2.1 W 6 9 3 5 - - 0.0
30/04:00pm 11.3 9.2 6.0 70 2.5 W 6 7 3 4 - - 0.0
30/03:30pm 11.5 9.4 6.0 69 2.6 W 6 9 3 5 - - 0.0
30/03:00pm 11.5 8.8 5.6 67 2.8 W 9 13 5 7 - - 0.0
30/02:30pm 11.7 9.4 5.6 66 2.9 WSW 7 13 4 7 - - 0.0
30/02:00pm 11.9 8.7 5.3 64 3.1 W 11 15 6 8 - - 0.0
30/01:30pm 11.8 9.1 5.4 65 3.0 WNW 9 15 5 8 - - 0.0
30/01:00pm 11.0 8.4 6.2 72 2.3 W 9 13 5 7 - - 0.0
30/12:30pm 10.1 7.9 6.4 78 1.7 W 7 11 4 6 - - 0.0
30/12:00pm 9.4 7.1 5.9 79 1.6 W 7 11 4 6 - - 0.0
30/11:30am 8.9 6.9 6.2 83 1.3 W 6 9 3 5 - - 0.0
30/11:00am 8.3 6.0 5.9 85 1.1 W 7 11 4 6 - - 0.0
30/10:30am 7.9 6.2 5.9 87 0.9 WNW 4 6 2 3 - - 0.0
30/10:00am 7.4 5.7 5.7 89 0.8 WNW 4 7 2 4 - - 0.0
30/09:30am 6.9 5.1 5.5 91 0.6 WNW 4 7 2 4 - - 0.0
30/09:00am 6.5 5.5 5.6 94 0.4 CALM 0 0 0 0 - - 0.0
30/08:30am 6.2 5.2 5.5 95 0.3 CALM 0 0 0 0 - - 0.0
30/08:00am 6.0 4.9 5.3 95 0.3 CALM 0 0 0 0 - - 0.0
30/07:30am 5.9 4.4 5.2 95 0.3 WSW 2 4 1 2 - - 0.0
30/07:00am 5.8 4.3 5.1 95 0.3 WSW 2 7 1 4 - - 0.0
30/06:30am 5.7 3.8 5.1 96 0.3 WSW 4 6 2 3 - - 0.0
30/06:00am 5.8 3.6 5.2 96 0.3 WSW 6 7 3 4 - - 0.0
30/05:30am 5.4 3.9 5.0 97 0.2 E 2 4 1 2 - - 0.0
30/05:00am 4.9 2.9 4.3 96 0.3 NE 4 6 2 3 - - 0.0
30/04:30am 5.4 4.2 4.7 95 0.3 CALM 0 0 0 0 - - 0.0
30/04:00am 6.3 5.3 5.6 95 0.3 CALM 0 4 0 2 - - 0.0
30/03:30am 6.3 5.3 5.6 95 0.3 CALM 0 0 0 0 - - 0.0
30/03:00am 6.3 4.9 5.7 96 0.3 SSW 2 6 1 3 - - 0.0
30/02:30am 6.1 4.7 5.5 96 0.3 WNW 2 6 1 3 - - 0.0
30/02:00am 6.0 4.6 5.4 96 0.3 W 2 2 1 1 - - 0.0
30/01:30am 5.8 4.7 5.2 96 0.3 CALM 0 0 0 0 - - 0.0
30/01:00am 5.6 4.5 5.0 96 0.3 CALM 0 2 0 1 - - 0.0
30/12:30am 5.5 4.4 4.9 96 0.3 CALM 0 0 0 0 - - 0.0
30/12:00am 5.1 3.9 4.5 96 0.3 CALM 0 0 0 0 - - 0.0
 
Date/Time
EST
Temp
°C
App
Temp
°C
Dew
Point
Rel
Hum
%
Delta-T
°C
Wind Press
QNH
hPa
Press
MSL
hPa
Rain
since 9 am
mm
Dir
 
Spd
km/h
Gust
km/h
Spd
kts
Gust
kts
29/11:30pm 5.0 3.8 4.6 97 0.2 CALM 0 0 0 0 - - 0.0
29/11:00pm 4.4 3.0 3.8 96 0.3 CALM 0 0 0 0 - - 0.0
29/10:30pm 4.0 2.6 3.4 96 0.2 CALM 0 0 0 0 - - 0.0
29/10:00pm 3.6 2.1 3.0 96 0.2 CALM 0 0 0 0 - - 0.0
29/09:30pm 2.8 1.1 2.1 95 0.3 CALM 0 0 0 0 - - 0.0
29/09:00pm 3.5 2.0 2.8 95 0.3 CALM 0 0 0 0 - - 0.0
29/08:30pm 3.9 2.4 3.0 94 0.4 CALM 0 0 0 0 - - 0.0
29/08:00pm 4.7 2.6 3.7 93 0.4 E 4 4 2 2 - - 0.0
29/07:30pm 4.7 2.0 3.5 92 0.5 E 7 9 4 5 - - 0.0
29/07:00pm 5.4 3.6 3.7 89 0.7 SSE 2 2 1 1 - - 0.0
29/06:30pm 5.9 3.4 3.9 87 0.9 SE 6 6 3 3 - - 0.0
29/06:00pm 7.0 5.4 4.3 83 1.2 S 2 6 1 3 - - 0.0
29/05:30pm 7.5 5.5 4.5 81 1.3 SSW 4 6 2 3 - - 0.0
29/05:00pm 8.6 5.8 5.0 78 1.6 SSE 9 17 5 9 - - 0.0
29/04:30pm 9.2 6.7 5.0 75 1.9 SE 7 13 4 7 - - 0.0
29/04:00pm 9.8 6.7 5.6 75 1.9 SSE 11 15 6 8 - - 0.0
29/03:30pm 9.8 6.3 5.4 74 2.0 S 13 17 7 9 - - 0.0
29/03:00pm 10.1 7.4 5.5 73 2.1 SSE 9 13 5 7 - - 0.0
29/02:30pm 10.3 7.7 5.9 74 2.0 SSE 9 13 5 7 - - 0.0
29/02:00pm 10.4 7.4 6.0 74 2.1 SE 11 17 6 9 - - 0.0

Other Formats:

Comma delimited format used in spreadsheet applications
http://www.bom.gov.au/fwo/IDV60801/IDV60801.95832.axf

JavaScript Object Notation format (JSON) in row-major order
http://www.bom.gov.au/fwo/IDV60801/IDV60801.95832.json